This is the latest recevied weather packets stored in our database for station/object OE-11204. If no packets are shown the sender has not sent any weather packets the latest 10 day(s).
| Time | Temp. | Humidity | Pressure | Rain* | Wind** | Luminosity | Snow |
|---|---|---|---|---|---|---|---|
| 1787739087 | 22.78° C | 56% | 1016.5 hPa | 0 mm | - | 730 W/m² | - |
| 1787738715 | 22.78° C | 56% | 1016.8 hPa | 0 mm | - | 724 W/m² | - |
| 1787738115 | 22.22° C | 58% | 1016.9 hPa | 0 mm | - | 718 W/m² | - |
| 1787737288 | 22.22° C | 58% | 1017.1 hPa | 0 mm | - | 705 W/m² | - |
| 1787736914 | 21.67° C | 58% | 1017.4 hPa | 0 mm | - | 693 W/m² | - |
| 1787736315 | 22.22° C | 60% | 1017.3 hPa | 0 mm | - | 681 W/m² | - |
| 1787735488 | 21.67° C | 61% | 1017.5 hPa | 0 mm | - | 662 W/m² | - |
| 1787735115 | 21.11° C | 63% | 1017.8 hPa | 0 mm | - | 644 W/m² | - |
| 1787733688 | 20.56° C | 61% | 1018.1 hPa | 0 mm | - | 613 W/m² | - |
| 1787733315 | 20° C | 63% | 1018 hPa | 0 mm | - | 588 W/m² | - |
| 1787732714 | 19.44° C | 66% | 1018.4 hPa | 0 mm | - | 569 W/m² | - |
| 1787731888 | 18.33° C | 69% | 1018.7 hPa | 0 mm | - | 545 W/m² | - |
| 1787731515 | 19.44° C | 68% | 1018.4 hPa | 0 mm | - | 526 W/m² | - |
| 1787730915 | 17.78° C | 72% | 1018.8 hPa | 0 mm | - | 501 W/m² | - |
| 1787730088 | 17.78° C | 74% | 1018.8 hPa | 0 mm | - | 476 W/m² | - |
| 1787729715 | 17.78° C | 75% | 1019 hPa | 0 mm | - | 452 W/m² | - |
| 1787729115 | 17.22° C | 76% | 1019.2 hPa | 0 mm | - | 421 W/m² | - |
| 1787728287 | 17.22° C | 77% | 1019.1 hPa | 0 mm | - | 396 W/m² | - |
| 1787727915 | 16.11° C | 78% | 1019.6 hPa | 0 mm | - | 291 W/m² | - |
| 1787727315 | 16.11° C | 80% | 1019.8 hPa | 0 mm | - | 254 W/m² | - |
| 1787726726 | 15.56° C | 81% | 1019.8 hPa | 0 mm | - | 328 W/m² | - |
| 1787726115 | 15° C | 82% | 1020 hPa | 0 mm | - | 248 W/m² | - |
| 1787725515 | 16.11° C | 80% | 1019.9 hPa | 0 mm | - | 316 W/m² | - |
| 1787724687 | 14.44° C | 84% | 1020.1 hPa | 0 mm | - | 260 W/m² | - |
| 1787724315 | 13.89° C | 88% | 1020.4 hPa | 0 mm | - | 210 W/m² | - |
* Rain latest hour (hover to see other rain measurements)
** Current wind speed in m/s (hover to see current wind gust speed)